sensor_id;sensor_type;location;lat;lon;timestamp;P1;durP1;ratioP1;P2;durP2;ratioP2
71562;SDS011;59391;52.504;13.438;2023-06-14T00:00:33;9.73;;;4.65;;
71562;SDS011;59391;52.504;13.438;2023-06-14T00:02:59;7.63;;;4.03;;
71562;SDS011;59391;52.504;13.438;2023-06-14T00:05:25;6.40;;;4.07;;
71562;SDS011;59391;52.504;13.438;2023-06-14T00:07:51;9.07;;;5.50;;
71562;SDS011;59391;52.504;13.438;2023-06-14T00:10:18;10.57;;;6.68;;
71562;SDS011;59391;52.504;13.438;2023-06-14T00:12:44;6.78;;;4.57;;
71562;SDS011;59391;52.504;13.438;2023-06-14T00:15:10;6.40;;;4.03;;
71562;SDS011;59391;52.504;13.438;2023-06-14T00:17:36;6.93;;;4.70;;
71562;SDS011;59391;52.504;13.438;2023-06-14T00:20:04;6.95;;;3.97;;
71562;SDS011;59391;52.504;13.438;2023-06-14T00:22:32;8.52;;;3.55;;
71562;SDS011;59391;52.504;13.438;2023-06-14T00:24:59;6.00;;;3.95;;
71562;SDS011;59391;52.504;13.438;2023-06-14T00:27:24;10.23;;;4.50;;
71562;SDS011;59391;52.504;13.438;2023-06-14T00:29:50;9.07;;;4.10;;
71562;SDS011;59391;52.504;13.438;2023-06-14T00:32:17;6.63;;;4.35;;
71562;SDS011;59391;52.504;13.438;2023-06-14T00:34:43;8.32;;;4.45;;
71562;SDS011;59391;52.504;13.438;2023-06-14T00:37:09;9.63;;;3.75;;
71562;SDS011;59391;52.504;13.438;2023-06-14T00:39:35;5.97;;;4.27;;
71562;SDS011;59391;52.504;13.438;2023-06-14T00:42:00;9.02;;;4.90;;
71562;SDS011;59391;52.504;13.438;2023-06-14T00:44:26;7.13;;;4.60;;
71562;SDS011;59391;52.504;13.438;2023-06-14T00:46:52;6.60;;;4.18;;
71562;SDS011;59391;52.504;13.438;2023-06-14T00:49:17;7.40;;;4.07;;
71562;SDS011;59391;52.504;13.438;2023-06-14T00:51:44;7.43;;;4.70;;
71562;SDS011;59391;52.504;13.438;2023-06-14T00:54:11;6.10;;;4.43;;
71562;SDS011;59391;52.504;13.438;2023-06-14T00:56:39;10.10;;;4.80;;
71562;SDS011;59391;52.504;13.438;2023-06-14T00:59:08;6.22;;;4.53;;
71562;SDS011;59391;52.504;13.438;2023-06-14T01:01:35;9.35;;;4.97;;
71562;SDS011;59391;52.504;13.438;2023-06-14T01:04:01;8.55;;;4.97;;
71562;SDS011;59391;52.504;13.438;2023-06-14T01:06:33;9.65;;;5.25;;
71562;SDS011;59391;52.504;13.438;2023-06-14T01:09:31;8.80;;;5.25;;
71562;SDS011;59391;52.504;13.438;2023-06-14T01:12:21;8.23;;;5.45;;
71562;SDS011;59391;52.504;13.438;2023-06-14T01:15:00;7.70;;;5.15;;
71562;SDS011;59391;52.504;13.438;2023-06-14T01:17:27;8.77;;;5.43;;
71562;SDS011;59391;52.504;13.438;2023-06-14T01:19:57;7.50;;;5.07;;
71562;SDS011;59391;52.504;13.438;2023-06-14T01:22:26;8.15;;;5.50;;
71562;SDS011;59391;52.504;13.438;2023-06-14T01:24:52;11.20;;;7.68;;
71562;SDS011;59391;52.504;13.438;2023-06-14T01:27:21;9.55;;;4.93;;
71562;SDS011;59391;52.504;13.438;2023-06-14T01:29:54;10.20;;;5.25;;
71562;SDS011;59391;52.504;13.438;2023-06-14T01:32:24;7.68;;;5.40;;
71562;SDS011;59391;52.504;13.438;2023-06-14T01:34:54;7.03;;;4.82;;
71562;SDS011;59391;52.504;13.438;2023-06-14T01:37:20;9.70;;;5.50;;
71562;SDS011;59391;52.504;13.438;2023-06-14T01:39:47;8.50;;;4.95;;
71562;SDS011;59391;52.504;13.438;2023-06-14T01:42:17;11.43;;;5.80;;
71562;SDS011;59391;52.504;13.438;2023-06-14T01:44:43;8.75;;;5.75;;
71562;SDS011;59391;52.504;13.438;2023-06-14T01:47:11;11.35;;;5.40;;
71562;SDS011;59391;52.504;13.438;2023-06-14T01:49:38;9.05;;;6.07;;
71562;SDS011;59391;52.504;13.438;2023-06-14T01:52:03;8.48;;;5.60;;
71562;SDS011;59391;52.504;13.438;2023-06-14T01:54:31;9.02;;;5.60;;
71562;SDS011;59391;52.504;13.438;2023-06-14T01:56:56;9.68;;;5.82;;
71562;SDS011;59391;52.504;13.438;2023-06-14T01:59:22;7.20;;;5.80;;
71562;SDS011;59391;52.504;13.438;2023-06-14T02:01:48;7.63;;;5.75;;
71562;SDS011;59391;52.504;13.438;2023-06-14T02:04:13;11.20;;;6.10;;
71562;SDS011;59391;52.504;13.438;2023-06-14T02:06:39;9.05;;;6.18;;
71562;SDS011;59391;52.504;13.438;2023-06-14T02:09:04;7.60;;;5.77;;
71562;SDS011;59391;52.504;13.438;2023-06-14T02:11:30;8.27;;;5.93;;
71562;SDS011;59391;52.504;13.438;2023-06-14T02:13:56;7.43;;;5.20;;
71562;SDS011;59391;52.504;13.438;2023-06-14T02:16:21;8.10;;;6.17;;
71562;SDS011;59391;52.504;13.438;2023-06-14T02:18:47;8.25;;;5.82;;
71562;SDS011;59391;52.504;13.438;2023-06-14T02:21:13;8.70;;;5.72;;
71562;SDS011;59391;52.504;13.438;2023-06-14T02:23:39;8.00;;;5.53;;
71562;SDS011;59391;52.504;13.438;2023-06-14T02:26:05;8.48;;;6.10;;
71562;SDS011;59391;52.504;13.438;2023-06-14T02:28:31;9.55;;;6.10;;
71562;SDS011;59391;52.504;13.438;2023-06-14T02:30:57;9.27;;;5.70;;
71562;SDS011;59391;52.504;13.438;2023-06-14T02:33:22;9.20;;;5.80;;
71562;SDS011;59391;52.504;13.438;2023-06-14T02:35:48;8.80;;;5.90;;
71562;SDS011;59391;52.504;13.438;2023-06-14T02:38:13;7.93;;;5.80;;
71562;SDS011;59391;52.504;13.438;2023-06-14T02:40:39;8.45;;;6.00;;
71562;SDS011;59391;52.504;13.438;2023-06-14T02:43:07;7.65;;;5.82;;
71562;SDS011;59391;52.504;13.438;2023-06-14T02:45:33;8.38;;;5.88;;
71562;SDS011;59391;52.504;13.438;2023-06-14T02:47:59;13.90;;;7.03;;
71562;SDS011;59391;52.504;13.438;2023-06-14T02:50:24;8.17;;;6.13;;
71562;SDS011;59391;52.504;13.438;2023-06-14T02:52:51;7.72;;;6.07;;
71562;SDS011;59391;52.504;13.438;2023-06-14T02:55:17;9.20;;;6.32;;
71562;SDS011;59391;52.504;13.438;2023-06-14T02:57:43;8.63;;;5.90;;
71562;SDS011;59391;52.504;13.438;2023-06-14T03:00:09;9.05;;;6.18;;
71562;SDS011;59391;52.504;13.438;2023-06-14T03:02:36;9.70;;;6.35;;
71562;SDS011;59391;52.504;13.438;2023-06-14T03:05:02;9.80;;;6.37;;
71562;SDS011;59391;52.504;13.438;2023-06-14T03:07:28;12.73;;;8.32;;
71562;SDS011;59391;52.504;13.438;2023-06-14T03:09:54;9.55;;;6.95;;
71562;SDS011;59391;52.504;13.438;2023-06-14T03:12:20;11.23;;;6.97;;
71562;SDS011;59391;52.504;13.438;2023-06-14T03:14:46;10.13;;;6.50;;
71562;SDS011;59391;52.504;13.438;2023-06-14T03:17:11;9.57;;;6.70;;
71562;SDS011;59391;52.504;13.438;2023-06-14T03:19:37;11.75;;;7.32;;
71562;SDS011;59391;52.504;13.438;2023-06-14T03:22:03;9.53;;;6.10;;
71562;SDS011;59391;52.504;13.438;2023-06-14T03:24:29;10.10;;;6.53;;
71562;SDS011;59391;52.504;13.438;2023-06-14T03:26:56;9.55;;;6.43;;
71562;SDS011;59391;52.504;13.438;2023-06-14T03:29:22;10.90;;;7.17;;
71562;SDS011;59391;52.504;13.438;2023-06-14T03:31:58;10.73;;;7.27;;
71562;SDS011;59391;52.504;13.438;2023-06-14T03:34:28;11.70;;;6.95;;
71562;SDS011;59391;52.504;13.438;2023-06-14T03:36:54;8.80;;;6.80;;
71562;SDS011;59391;52.504;13.438;2023-06-14T03:39:20;8.60;;;6.70;;
71562;SDS011;59391;52.504;13.438;2023-06-14T03:41:46;10.32;;;7.15;;
71562;SDS011;59391;52.504;13.438;2023-06-14T03:44:14;10.88;;;6.32;;
71562;SDS011;59391;52.504;13.438;2023-06-14T03:46:42;10.68;;;6.55;;
71562;SDS011;59391;52.504;13.438;2023-06-14T03:49:08;9.23;;;6.93;;
71562;SDS011;59391;52.504;13.438;2023-06-14T03:51:33;9.98;;;7.20;;
71562;SDS011;59391;52.504;13.438;2023-06-14T03:54:00;10.93;;;7.60;;
71562;SDS011;59391;52.504;13.438;2023-06-14T03:56:26;10.95;;;7.22;;
71562;SDS011;59391;52.504;13.438;2023-06-14T03:58:52;9.95;;;6.95;;
71562;SDS011;59391;52.504;13.438;2023-06-14T04:01:17;9.87;;;7.07;;
71562;SDS011;59391;52.504;13.438;2023-06-14T04:03:43;15.07;;;7.40;;
71562;SDS011;59391;52.504;13.438;2023-06-14T04:06:09;10.60;;;7.10;;
71562;SDS011;59391;52.504;13.438;2023-06-14T04:08:34;11.32;;;6.80;;
71562;SDS011;59391;52.504;13.438;2023-06-14T04:11:00;10.67;;;7.17;;
71562;SDS011;59391;52.504;13.438;2023-06-14T04:13:26;9.40;;;6.82;;
71562;SDS011;59391;52.504;13.438;2023-06-14T04:15:52;9.97;;;6.73;;
71562;SDS011;59391;52.504;13.438;2023-06-14T04:18:18;9.40;;;6.97;;
71562;SDS011;59391;52.504;13.438;2023-06-14T04:20:45;10.60;;;7.07;;
71562;SDS011;59391;52.504;13.438;2023-06-14T04:23:11;14.83;;;7.53;;
71562;SDS011;59391;52.504;13.438;2023-06-14T04:25:40;9.07;;;7.45;;
71562;SDS011;59391;52.504;13.438;2023-06-14T04:28:05;9.83;;;7.30;;
71562;SDS011;59391;52.504;13.438;2023-06-14T04:30:34;10.25;;;7.40;;
71562;SDS011;59391;52.504;13.438;2023-06-14T04:33:01;11.35;;;6.82;;
71562;SDS011;59391;52.504;13.438;2023-06-14T04:35:31;11.85;;;7.47;;
71562;SDS011;59391;52.504;13.438;2023-06-14T04:37:57;11.40;;;7.82;;
71562;SDS011;59391;52.504;13.438;2023-06-14T04:40:24;10.13;;;7.60;;
71562;SDS011;59391;52.504;13.438;2023-06-14T04:42:50;12.35;;;8.13;;
71562;SDS011;59391;52.504;13.438;2023-06-14T04:45:16;11.85;;;7.95;;
71562;SDS011;59391;52.504;13.438;2023-06-14T04:47:42;10.53;;;7.40;;
71562;SDS011;59391;52.504;13.438;2023-06-14T04:50:08;15.35;;;8.02;;
71562;SDS011;59391;52.504;13.438;2023-06-14T04:52:35;11.65;;;7.97;;
71562;SDS011;59391;52.504;13.438;2023-06-14T04:55:02;12.02;;;7.43;;
71562;SDS011;59391;52.504;13.438;2023-06-14T04:57:28;20.15;;;8.77;;
71562;SDS011;59391;52.504;13.438;2023-06-14T04:59:54;12.00;;;7.60;;
71562;SDS011;59391;52.504;13.438;2023-06-14T05:02:20;11.82;;;7.30;;
71562;SDS011;59391;52.504;13.438;2023-06-14T05:04:50;11.88;;;7.45;;
71562;SDS011;59391;52.504;13.438;2023-06-14T05:07:17;12.38;;;8.15;;
71562;SDS011;59391;52.504;13.438;2023-06-14T05:09:42;12.57;;;7.00;;
71562;SDS011;59391;52.504;13.438;2023-06-14T05:12:09;13.07;;;7.50;;
71562;SDS011;59391;52.504;13.438;2023-06-14T05:14:34;10.15;;;7.07;;
71562;SDS011;59391;52.504;13.438;2023-06-14T05:17:01;10.88;;;7.28;;
71562;SDS011;59391;52.504;13.438;2023-06-14T05:19:27;10.63;;;7.28;;
71562;SDS011;59391;52.504;13.438;2023-06-14T05:21:53;15.77;;;7.67;;
71562;SDS011;59391;52.504;13.438;2023-06-14T05:24:19;11.43;;;7.50;;
71562;SDS011;59391;52.504;13.438;2023-06-14T05:26:45;11.93;;;7.70;;
71562;SDS011;59391;52.504;13.438;2023-06-14T05:29:11;11.27;;;7.20;;
71562;SDS011;59391;52.504;13.438;2023-06-14T05:31:37;12.83;;;7.77;;
71562;SDS011;59391;52.504;13.438;2023-06-14T05:34:03;10.95;;;7.38;;
71562;SDS011;59391;52.504;13.438;2023-06-14T05:36:29;13.25;;;7.63;;
71562;SDS011;59391;52.504;13.438;2023-06-14T05:38:55;12.20;;;7.70;;
71562;SDS011;59391;52.504;13.438;2023-06-14T05:41:23;12.70;;;7.55;;
71562;SDS011;59391;52.504;13.438;2023-06-14T05:43:53;12.27;;;6.78;;
71562;SDS011;59391;52.504;13.438;2023-06-14T05:46:21;13.45;;;7.20;;
71562;SDS011;59391;52.504;13.438;2023-06-14T05:48:50;9.63;;;7.07;;
71562;SDS011;59391;52.504;13.438;2023-06-14T05:51:17;11.13;;;7.60;;
71562;SDS011;59391;52.504;13.438;2023-06-14T05:53:46;11.60;;;7.60;;
71562;SDS011;59391;52.504;13.438;2023-06-14T05:56:18;10.98;;;7.35;;
71562;SDS011;59391;52.504;13.438;2023-06-14T05:58:44;12.77;;;7.45;;
71562;SDS011;59391;52.504;13.438;2023-06-14T06:01:11;11.73;;;7.53;;
71562;SDS011;59391;52.504;13.438;2023-06-14T06:03:38;12.60;;;7.40;;
71562;SDS011;59391;52.504;13.438;2023-06-14T06:06:04;10.35;;;7.35;;
71562;SDS011;59391;52.504;13.438;2023-06-14T06:08:30;10.80;;;7.00;;
71562;SDS011;59391;52.504;13.438;2023-06-14T06:10:56;12.03;;;6.50;;
71562;SDS011;59391;52.504;13.438;2023-06-14T06:13:22;11.32;;;7.72;;
71562;SDS011;59391;52.504;13.438;2023-06-14T06:15:48;12.05;;;7.18;;
71562;SDS011;59391;52.504;13.438;2023-06-14T06:18:14;11.53;;;7.27;;
71562;SDS011;59391;52.504;13.438;2023-06-14T06:20:39;9.70;;;6.50;;
71562;SDS011;59391;52.504;13.438;2023-06-14T06:23:05;10.53;;;6.80;;
71562;SDS011;59391;52.504;13.438;2023-06-14T06:25:31;9.02;;;6.85;;
71562;SDS011;59391;52.504;13.438;2023-06-14T06:27:57;10.07;;;6.60;;
71562;SDS011;59391;52.504;13.438;2023-06-14T06:30:23;12.57;;;7.28;;
71562;SDS011;59391;52.504;13.438;2023-06-14T06:32:50;11.63;;;6.68;;
71562;SDS011;59391;52.504;13.438;2023-06-14T06:35:16;9.48;;;7.10;;
71562;SDS011;59391;52.504;13.438;2023-06-14T06:37:42;10.07;;;6.70;;
71562;SDS011;59391;52.504;13.438;2023-06-14T06:40:08;11.48;;;6.68;;
71562;SDS011;59391;52.504;13.438;2023-06-14T06:42:35;10.13;;;6.82;;
71562;SDS011;59391;52.504;13.438;2023-06-14T06:45:01;9.35;;;6.68;;
71562;SDS011;59391;52.504;13.438;2023-06-14T06:47:27;11.65;;;7.00;;
71562;SDS011;59391;52.504;13.438;2023-06-14T06:49:55;10.10;;;6.83;;
71562;SDS011;59391;52.504;13.438;2023-06-14T06:52:21;9.50;;;6.13;;
71562;SDS011;59391;52.504;13.438;2023-06-14T06:54:47;11.37;;;6.90;;
71562;SDS011;59391;52.504;13.438;2023-06-14T06:57:14;11.07;;;6.83;;
71562;SDS011;59391;52.504;13.438;2023-06-14T06:59:42;10.48;;;7.47;;
71562;SDS011;59391;52.504;13.438;2023-06-14T07:02:07;10.63;;;6.73;;
71562;SDS011;59391;52.504;13.438;2023-06-14T07:04:33;8.27;;;6.33;;
71562;SDS011;59391;52.504;13.438;2023-06-14T07:06:59;10.10;;;6.87;;
71562;SDS011;59391;52.504;13.438;2023-06-14T07:09:24;8.73;;;6.55;;
71562;SDS011;59391;52.504;13.438;2023-06-14T07:11:50;10.27;;;6.53;;
71562;SDS011;59391;52.504;13.438;2023-06-14T07:14:16;11.00;;;6.70;;
71562;SDS011;59391;52.504;13.438;2023-06-14T07:16:42;9.85;;;6.57;;
71562;SDS011;59391;52.504;13.438;2023-06-14T07:19:08;9.73;;;6.55;;
71562;SDS011;59391;52.504;13.438;2023-06-14T07:21:35;10.45;;;6.15;;
71562;SDS011;59391;52.504;13.438;2023-06-14T07:24:02;9.88;;;6.47;;
71562;SDS011;59391;52.504;13.438;2023-06-14T07:26:31;9.73;;;6.80;;
71562;SDS011;59391;52.504;13.438;2023-06-14T07:28:57;10.50;;;6.75;;
71562;SDS011;59391;52.504;13.438;2023-06-14T07:31:23;10.70;;;6.50;;
71562;SDS011;59391;52.504;13.438;2023-06-14T07:33:48;10.47;;;6.40;;
71562;SDS011;59391;52.504;13.438;2023-06-14T07:36:17;11.65;;;6.85;;
71562;SDS011;59391;52.504;13.438;2023-06-14T07:38:43;10.93;;;6.95;;
71562;SDS011;59391;52.504;13.438;2023-06-14T07:41:09;9.67;;;6.50;;
71562;SDS011;59391;52.504;13.438;2023-06-14T07:43:34;12.02;;;6.55;;
71562;SDS011;59391;52.504;13.438;2023-06-14T07:46:00;10.57;;;7.03;;
71562;SDS011;59391;52.504;13.438;2023-06-14T07:48:27;12.32;;;6.20;;
71562;SDS011;59391;52.504;13.438;2023-06-14T07:50:52;10.07;;;6.50;;
71562;SDS011;59391;52.504;13.438;2023-06-14T07:53:18;10.47;;;6.23;;
71562;SDS011;59391;52.504;13.438;2023-06-14T07:55:44;9.47;;;6.07;;
71562;SDS011;59391;52.504;13.438;2023-06-14T07:58:09;9.53;;;6.67;;
71562;SDS011;59391;52.504;13.438;2023-06-14T08:00:35;8.73;;;5.97;;
71562;SDS011;59391;52.504;13.438;2023-06-14T08:03:01;9.97;;;6.40;;
71562;SDS011;59391;52.504;13.438;2023-06-14T08:05:33;11.10;;;6.57;;
71562;SDS011;59391;52.504;13.438;2023-06-14T08:07:59;9.35;;;6.30;;
71562;SDS011;59391;52.504;13.438;2023-06-14T08:10:26;8.85;;;5.93;;
71562;SDS011;59391;52.504;13.438;2023-06-14T08:12:52;9.47;;;5.63;;
71562;SDS011;59391;52.504;13.438;2023-06-14T08:15:18;9.18;;;5.93;;
71562;SDS011;59391;52.504;13.438;2023-06-14T08:17:43;10.57;;;5.83;;
71562;SDS011;59391;52.504;13.438;2023-06-14T08:20:10;9.18;;;5.40;;
71562;SDS011;59391;52.504;13.438;2023-06-14T08:22:38;10.70;;;6.03;;
71562;SDS011;59391;52.504;13.438;2023-06-14T08:25:07;10.77;;;5.88;;
71562;SDS011;59391;52.504;13.438;2023-06-14T08:27:33;8.43;;;5.60;;
71562;SDS011;59391;52.504;13.438;2023-06-14T08:29:59;10.00;;;6.30;;
71562;SDS011;59391;52.504;13.438;2023-06-14T08:32:25;12.55;;;5.80;;
71562;SDS011;59391;52.504;13.438;2023-06-14T08:34:51;7.70;;;5.23;;
71562;SDS011;59391;52.504;13.438;2023-06-14T08:37:16;8.63;;;5.80;;
71562;SDS011;59391;52.504;13.438;2023-06-14T08:39:42;11.40;;;6.30;;
71562;SDS011;59391;52.504;13.438;2023-06-14T08:42:09;11.38;;;5.63;;
71562;SDS011;59391;52.504;13.438;2023-06-14T08:44:35;7.88;;;5.38;;
71562;SDS011;59391;52.504;13.438;2023-06-14T08:47:01;9.57;;;5.60;;
71562;SDS011;59391;52.504;13.438;2023-06-14T08:49:28;7.75;;;5.00;;
71562;SDS011;59391;52.504;13.438;2023-06-14T08:51:59;7.85;;;5.00;;
71562;SDS011;59391;52.504;13.438;2023-06-14T08:54:29;8.45;;;5.20;;
71562;SDS011;59391;52.504;13.438;2023-06-14T08:56:56;8.23;;;4.57;;
71562;SDS011;59391;52.504;13.438;2023-06-14T08:59:28;10.38;;;4.45;;
71562;SDS011;59391;52.504;13.438;2023-06-14T09:01:56;7.43;;;4.68;;
71562;SDS011;59391;52.504;13.438;2023-06-14T09:04:22;7.93;;;5.20;;
71562;SDS011;59391;52.504;13.438;2023-06-14T09:06:54;7.85;;;5.30;;
71562;SDS011;59391;52.504;13.438;2023-06-14T09:09:21;8.90;;;5.27;;
71562;SDS011;59391;52.504;13.438;2023-06-14T09:11:50;11.73;;;5.70;;
71562;SDS011;59391;52.504;13.438;2023-06-14T09:14:18;7.93;;;5.63;;
71562;SDS011;59391;52.504;13.438;2023-06-14T09:16:44;8.27;;;5.18;;
71562;SDS011;59391;52.504;13.438;2023-06-14T09:19:14;8.27;;;5.50;;
71562;SDS011;59391;52.504;13.438;2023-06-14T09:21:49;7.45;;;4.78;;
71562;SDS011;59391;52.504;13.438;2023-06-14T09:24:17;8.55;;;5.30;;
71562;SDS011;59391;52.504;13.438;2023-06-14T09:26:44;6.73;;;4.57;;
71562;SDS011;59391;52.504;13.438;2023-06-14T09:29:12;11.57;;;4.35;;
71562;SDS011;59391;52.504;13.438;2023-06-14T09:31:38;6.80;;;4.15;;
71562;SDS011;59391;52.504;13.438;2023-06-14T09:34:04;7.33;;;4.33;;
71562;SDS011;59391;52.504;13.438;2023-06-14T09:36:31;6.70;;;4.70;;
71562;SDS011;59391;52.504;13.438;2023-06-14T09:38:58;8.43;;;4.90;;
71562;SDS011;59391;52.504;13.438;2023-06-14T09:41:36;8.05;;;4.90;;
71562;SDS011;59391;52.504;13.438;2023-06-14T09:44:05;6.43;;;4.50;;
71562;SDS011;59391;52.504;13.438;2023-06-14T09:46:33;8.50;;;5.60;;
71562;SDS011;59391;52.504;13.438;2023-06-14T09:49:00;9.57;;;5.05;;
71562;SDS011;59391;52.504;13.438;2023-06-14T09:51:28;9.18;;;5.00;;
71562;SDS011;59391;52.504;13.438;2023-06-14T09:54:02;9.25;;;5.03;;
71562;SDS011;59391;52.504;13.438;2023-06-14T09:56:33;7.53;;;4.70;;
71562;SDS011;59391;52.504;13.438;2023-06-14T09:59:04;10.40;;;5.57;;
71562;SDS011;59391;52.504;13.438;2023-06-14T10:01:33;8.35;;;4.65;;
71562;SDS011;59391;52.504;13.438;2023-06-14T10:04:01;10.70;;;5.72;;
71562;SDS011;59391;52.504;13.438;2023-06-14T10:06:32;7.95;;;4.68;;
71562;SDS011;59391;52.504;13.438;2023-06-14T10:09:10;7.57;;;5.10;;
71562;SDS011;59391;52.504;13.438;2023-06-14T10:11:36;8.83;;;5.00;;
71562;SDS011;59391;52.504;13.438;2023-06-14T10:14:08;8.35;;;5.03;;
71562;SDS011;59391;52.504;13.438;2023-06-14T10:19:34;7.25;;;5.18;;
71562;SDS011;59391;52.504;13.438;2023-06-14T10:22:14;8.05;;;4.60;;
71562;SDS011;59391;52.504;13.438;2023-06-14T10:24:48;7.23;;;4.80;;
71562;SDS011;59391;52.504;13.438;2023-06-14T10:27:15;9.25;;;4.85;;
71562;SDS011;59391;52.504;13.438;2023-06-14T10:32:22;9.00;;;4.80;;
71562;SDS011;59391;52.504;13.438;2023-06-14T10:34:53;7.45;;;4.70;;
71562;SDS011;59391;52.504;13.438;2023-06-14T10:37:30;7.40;;;4.63;;
71562;SDS011;59391;52.504;13.438;2023-06-14T10:39:57;7.68;;;4.93;;
71562;SDS011;59391;52.504;13.438;2023-06-14T10:42:27;6.90;;;4.80;;
71562;SDS011;59391;52.504;13.438;2023-06-14T10:44:57;7.32;;;4.93;;
71562;SDS011;59391;52.504;13.438;2023-06-14T10:47:26;10.03;;;5.30;;
71562;SDS011;59391;52.504;13.438;2023-06-14T10:49:54;10.80;;;5.32;;
71562;SDS011;59391;52.504;13.438;2023-06-14T10:52:27;11.18;;;5.80;;
71562;SDS011;59391;52.504;13.438;2023-06-14T10:57:47;9.73;;;5.20;;
71562;SDS011;59391;52.504;13.438;2023-06-14T11:00:21;10.67;;;5.33;;
71562;SDS011;59391;52.504;13.438;2023-06-14T11:05:53;8.23;;;4.60;;
71562;SDS011;59391;52.504;13.438;2023-06-14T11:08:27;10.32;;;4.75;;
71562;SDS011;59391;52.504;13.438;2023-06-14T11:11:47;8.63;;;5.35;;
71562;SDS011;59391;52.504;13.438;2023-06-14T11:14:14;9.90;;;4.93;;
71562;SDS011;59391;52.504;13.438;2023-06-14T11:16:39;10.35;;;5.38;;
71562;SDS011;59391;52.504;13.438;2023-06-14T11:19:05;10.90;;;4.93;;
71562;SDS011;59391;52.504;13.438;2023-06-14T11:21:34;9.85;;;4.63;;
71562;SDS011;59391;52.504;13.438;2023-06-14T11:24:09;6.60;;;4.65;;
71562;SDS011;59391;52.504;13.438;2023-06-14T11:26:37;7.53;;;4.63;;
71562;SDS011;59391;52.504;13.438;2023-06-14T11:29:03;8.20;;;5.10;;
71562;SDS011;59391;52.504;13.438;2023-06-14T11:31:29;11.13;;;5.18;;
71562;SDS011;59391;52.504;13.438;2023-06-14T11:33:56;10.27;;;5.32;;
71562;SDS011;59391;52.504;13.438;2023-06-14T11:36:26;9.32;;;5.15;;
71562;SDS011;59391;52.504;13.438;2023-06-14T11:39:02;9.80;;;5.43;;
71562;SDS011;59391;52.504;13.438;2023-06-14T11:41:37;7.50;;;4.78;;
71562;SDS011;59391;52.504;13.438;2023-06-14T11:44:10;9.52;;;4.80;;
71562;SDS011;59391;52.504;13.438;2023-06-14T11:46:37;10.70;;;5.13;;
71562;SDS011;59391;52.504;13.438;2023-06-14T11:49:03;7.25;;;5.00;;
71562;SDS011;59391;52.504;13.438;2023-06-14T11:51:32;7.60;;;4.77;;
71562;SDS011;59391;52.504;13.438;2023-06-14T11:53:59;8.25;;;5.00;;
71562;SDS011;59391;52.504;13.438;2023-06-14T11:56:27;9.27;;;5.25;;
71562;SDS011;59391;52.504;13.438;2023-06-14T11:58:54;10.18;;;5.47;;
71562;SDS011;59391;52.504;13.438;2023-06-14T12:01:22;9.25;;;5.10;;
71562;SDS011;59391;52.504;13.438;2023-06-14T12:03:51;7.77;;;4.43;;
71562;SDS011;59391;52.504;13.438;2023-06-14T12:06:26;9.13;;;4.30;;
71562;SDS011;59391;52.504;13.438;2023-06-14T12:08:55;18.27;;;5.95;;
71562;SDS011;59391;52.504;13.438;2023-06-14T12:11:21;8.98;;;4.30;;
71562;SDS011;59391;52.504;13.438;2023-06-14T12:13:48;9.57;;;4.63;;
71562;SDS011;59391;52.504;13.438;2023-06-14T12:16:14;7.75;;;4.45;;
71562;SDS011;59391;52.504;13.438;2023-06-14T12:18:40;8.20;;;4.50;;
71562;SDS011;59391;52.504;13.438;2023-06-14T12:21:08;9.05;;;4.20;;
71562;SDS011;59391;52.504;13.438;2023-06-14T12:23:45;8.00;;;4.47;;
71562;SDS011;59391;52.504;13.438;2023-06-14T12:26:18;8.70;;;4.53;;
71562;SDS011;59391;52.504;13.438;2023-06-14T12:28:45;7.45;;;4.57;;
71562;SDS011;59391;52.504;13.438;2023-06-14T12:31:13;9.60;;;4.35;;
71562;SDS011;59391;52.504;13.438;2023-06-14T12:33:41;13.55;;;5.05;;
71562;SDS011;59391;52.504;13.438;2023-06-14T12:36:07;8.03;;;4.37;;
71562;SDS011;59391;52.504;13.438;2023-06-14T12:38:34;7.07;;;4.00;;
71562;SDS011;59391;52.504;13.438;2023-06-14T12:41:00;7.60;;;3.80;;
71562;SDS011;59391;52.504;13.438;2023-06-14T12:43:26;6.70;;;3.63;;
71562;SDS011;59391;52.504;13.438;2023-06-14T12:45:52;7.27;;;4.03;;
71562;SDS011;59391;52.504;13.438;2023-06-14T12:48:19;8.48;;;4.07;;
71562;SDS011;59391;52.504;13.438;2023-06-14T12:50:45;8.15;;;4.30;;
71562;SDS011;59391;52.504;13.438;2023-06-14T12:53:11;8.15;;;4.22;;
71562;SDS011;59391;52.504;13.438;2023-06-14T12:55:37;10.27;;;4.60;;
71562;SDS011;59391;52.504;13.438;2023-06-14T12:58:03;8.52;;;3.58;;
71562;SDS011;59391;52.504;13.438;2023-06-14T13:00:29;5.70;;;3.30;;
71562;SDS011;59391;52.504;13.438;2023-06-14T13:02:55;8.43;;;3.70;;
71562;SDS011;59391;52.504;13.438;2023-06-14T13:05:22;8.18;;;3.55;;
71562;SDS011;59391;52.504;13.438;2023-06-14T13:07:48;8.63;;;3.50;;
71562;SDS011;59391;52.504;13.438;2023-06-14T13:10:14;8.63;;;3.45;;
71562;SDS011;59391;52.504;13.438;2023-06-14T13:12:41;14.85;;;4.28;;
71562;SDS011;59391;52.504;13.438;2023-06-14T13:15:06;8.10;;;3.60;;
71562;SDS011;59391;52.504;13.438;2023-06-14T13:17:33;11.05;;;4.60;;
71562;SDS011;59391;52.504;13.438;2023-06-14T13:20:04;7.93;;;4.80;;
71562;SDS011;59391;52.504;13.438;2023-06-14T13:22:33;6.40;;;3.80;;
71562;SDS011;59391;52.504;13.438;2023-06-14T13:25:00;9.32;;;3.90;;
71562;SDS011;59391;52.504;13.438;2023-06-14T13:27:27;8.35;;;3.70;;
71562;SDS011;59391;52.504;13.438;2023-06-14T13:29:53;9.63;;;4.30;;
71562;SDS011;59391;52.504;13.438;2023-06-14T13:32:20;8.13;;;3.88;;
71562;SDS011;59391;52.504;13.438;2023-06-14T13:34:47;8.50;;;4.03;;
71562;SDS011;59391;52.504;13.438;2023-06-14T13:37:13;10.40;;;4.10;;
71562;SDS011;59391;52.504;13.438;2023-06-14T13:39:39;8.30;;;3.95;;
71562;SDS011;59391;52.504;13.438;2023-06-14T13:42:05;8.53;;;3.80;;
71562;SDS011;59391;52.504;13.438;2023-06-14T13:44:31;7.43;;;4.28;;
71562;SDS011;59391;52.504;13.438;2023-06-14T13:46:56;7.13;;;3.13;;
71562;SDS011;59391;52.504;13.438;2023-06-14T13:49:22;8.57;;;3.50;;
71562;SDS011;59391;52.504;13.438;2023-06-14T13:51:48;6.80;;;3.53;;
71562;SDS011;59391;52.504;13.438;2023-06-14T13:54:13;7.25;;;3.30;;
71562;SDS011;59391;52.504;13.438;2023-06-14T13:56:40;9.13;;;3.83;;
71562;SDS011;59391;52.504;13.438;2023-06-14T13:59:06;5.68;;;3.50;;
71562;SDS011;59391;52.504;13.438;2023-06-14T14:01:32;7.33;;;3.60;;
71562;SDS011;59391;52.504;13.438;2023-06-14T14:03:58;7.65;;;3.90;;
71562;SDS011;59391;52.504;13.438;2023-06-14T14:06:25;9.05;;;4.15;;
71562;SDS011;59391;52.504;13.438;2023-06-14T14:08:51;7.25;;;4.05;;
71562;SDS011;59391;52.504;13.438;2023-06-14T14:11:17;8.47;;;4.17;;
71562;SDS011;59391;52.504;13.438;2023-06-14T14:13:43;6.85;;;3.97;;
71562;SDS011;59391;52.504;13.438;2023-06-14T14:16:09;8.73;;;4.88;;
71562;SDS011;59391;52.504;13.438;2023-06-14T14:18:35;7.53;;;4.18;;
71562;SDS011;59391;52.504;13.438;2023-06-14T14:21:02;9.87;;;5.17;;
71562;SDS011;59391;52.504;13.438;2023-06-14T14:23:28;7.90;;;4.43;;
71562;SDS011;59391;52.504;13.438;2023-06-14T14:25:53;7.45;;;4.00;;
71562;SDS011;59391;52.504;13.438;2023-06-14T14:28:19;10.27;;;3.63;;
71562;SDS011;59391;52.504;13.438;2023-06-14T14:30:45;8.43;;;4.22;;
71562;SDS011;59391;52.504;13.438;2023-06-14T14:33:14;10.02;;;4.43;;
71562;SDS011;59391;52.504;13.438;2023-06-14T14:35:42;6.93;;;4.23;;
71562;SDS011;59391;52.504;13.438;2023-06-14T14:38:10;6.13;;;3.60;;
71562;SDS011;59391;52.504;13.438;2023-06-14T14:40:37;10.82;;;4.30;;
71562;SDS011;59391;52.504;13.438;2023-06-14T14:43:04;7.18;;;4.18;;